Thunder radar more information blitzortung!


Radar de pluja more information rain snow radar


Visita la nostra xarxa de llocs de meteo:

Template documentation
and downloads

And another site



No particular awareness of the weather is required.    There are no Weather-warnings

Pagina Historial Weather Underground text

Diari Resum Juny 3, 2017 Unitats:  Imperial    Mètric   Tant
« Previous Dia
SegĂźent Dia »
Diari Setmana Mensual Anual Personalitzada
  Maxima: Minima: Media:
Temperatura: 81 °F 64.2 °F 73.2 °F
Punt de rosada: 63.9 °F 50.5 °F 57.9 °F
Humitat: 76 % 43 % 60 %
Wind Speed: 8.1 mph 0 mph 3.1 mph
RĂ fegues de vent: 8.1 mph - -
Vent:- - SSW
Pression baro: 30 in 29.9 in -
Precipitacions: 0 in    
Historical Graphs
 
 
Dades de taula per Juny 3, 2017
Temps Temperatura Punt de rosada Pression baro Vent Wind Speed RĂ fegues de vent Humitat Rainfall Rate (Hourly)
00:02 69.3 °F 56.1 °F 30 in WSW 2.3 mph 2.3 mph 63 % 0 in
04:30 71.1 °F 61.2 °F 30 in SSW 3 mph 4 mph 71 % 0 in
04:40 71.8 °F 61.5 °F 30 in SW 2 mph 4 mph 70 % 0 in
04:50 73.6 °F 62.8 °F 30 in WSW 1 mph 2 mph 69 % 0 in
05:00 75.2 °F 63.1 °F 30 in WSW 2 mph 3 mph 66 % 0 in
05:10 75.6 °F 63 °F 30 in SW 1 mph 4 mph 65 % 0 in
05:20 75 °F 63 °F 30 in Calm   1 mph 66 % 0 in
05:30 73.6 °F 61.9 °F 30 in South 2 mph 4 mph 67 % 0 in
05:40 73 °F 62.8 °F 29.9 in SSW 1 mph 2 mph 70 % 0 in
05:50 73.4 °F 62.2 °F 29.9 in SW 2 mph 3 mph 68 % 0 in
06:00 73.6 °F 62.4 °F 30 in SW 3 mph 4 mph 68 % 0 in
06:10 74.1 °F 62.4 °F 30 in WSW 1 mph 3 mph 67 % 0 in
06:20 74.1 °F 62.4 °F 30 in SW 2 mph 6 mph 67 % 0 in
06:30 73.8 °F 62.4 °F 30 in WSW 5 mph 5 mph 68 % 0 in
06:40 73.6 °F 62.8 °F 30 in WSW 3 mph 4 mph 69 % 0 in
06:50 73.9 °F 62.8 °F 30 in WSW 2 mph 4 mph 68 % 0 in
07:00 74.7 °F 61.7 °F 30 in SW 5 mph 5 mph 64 % 0 in
12:01 74.7 °F 61.7 °F 30 in SSW 5.8 mph 5.8 mph 64 % 0 in
12:06 74.5 °F 61.2 °F 30 in SSW 8.1 mph 8.1 mph 63 % 0 in
12:11 74.3 °F 61 °F 30 in WSW 5.8 mph 5.8 mph 63 % 0 in
12:16 74.1 °F 60.3 °F 30 in SW 8.1 mph 8.1 mph 62 % 0 in
12:21 74.3 °F 60.4 °F 30 in SSW 4.9 mph 4.9 mph 62 % 0 in
12:26 74.3 °F 60.1 °F 30 in SW 6.9 mph 6.9 mph 61 % 0 in
12:31 74.3 °F 59.5 °F 30 in SSE 3.5 mph 3.5 mph 60 % 0 in
12:36 74.1 °F 59.4 °F 30 in WSW 3.5 mph 3.6 mph 60 % 0 in
12:41 73.6 °F 59.7 °F 30 in NW 3.5 mph 3.5 mph 62 % 0 in
12:46 72.5 °F 58.6 °F 30 in WSW 4.3 mph 4.3 mph 62 % 0 in
12:51 72.1 °F 59.4 °F 30 in SSW 2.4 mph 2.4 mph 64 % 0 in
12:56 71.6 °F 59.2 °F 30 in West 2.9 mph 2.9 mph 65 % 0 in
13:01 71.2 °F 58.8 °F 30 in WSW 3.8 mph 3.8 mph 65 % 0 in
13:06 70.7 °F 58.5 °F 30 in WSW 5.8 mph 5.8 mph 65 % 0 in
13:11 70.5 °F 59.9 °F 30 in South 1.2 mph 1.2 mph 69 % 0 in
13:16 70.2 °F 59.5 °F 30 in WSW 3.5 mph 3.5 mph 69 % 0 in
13:21 70 °F 59.4 °F 30 in SW 3.5 mph 3.5 mph 69 % 0 in
13:26 70.2 °F 59.9 °F 30 in WSW 3.5 mph 3.5 mph 70 % 0 in
13:31 70.5 °F 60.6 °F 30 in SSW 2.4 mph 2.6 mph 71 % 0 in
13:36 70.5 °F 60.3 °F 30 in SSW 3.5 mph 3.5 mph 70 % 0 in
13:41 70.7 °F 60.4 °F 30 in WSW 3.5 mph 3.5 mph 70 % 0 in
13:46 71.1 °F 60.8 °F 30 in WSW 2.3 mph 2.3 mph 70 % 0 in
13:51 71.6 °F 61 °F 30 in WSW 2.3 mph 2.3 mph 69 % 0 in
13:56 71.6 °F 61 °F 30 in WSW 3.5 mph 3.5 mph 69 % 0 in
14:01 71.6 °F 61.3 °F 30 in WSW 5.6 mph 5.6 mph 70 % 0 in
14:06 71.2 °F 61.3 °F 30 in West 5.6 mph 5.6 mph 71 % 0 in
14:11 71.2 °F 61.3 °F 30 in SW 3.5 mph 3.5 mph 71 % 0 in
14:21 71.6 °F 61.7 °F 30 in SW 2.3 mph 2.3 mph 71 % 0 in
14:26 72 °F 62.1 °F 30 in SW 3.5 mph 3.5 mph 71 % 0 in
14:31 72.3 °F 62.4 °F 30 in SW 2.9 mph 2.9 mph 71 % 0 in
14:36 72.3 °F 62.4 °F 30 in SW 2.3 mph 2.4 mph 71 % 0 in
14:41 72.3 °F 62.8 °F 30 in WSW 2.3 mph   72 % 0 in
14:46 72.3 °F 62.8 °F 30 in SW 2.4 mph 2.4 mph 72 % 0 in
14:51 72.1 °F 62.6 °F 30 in SW 4.9 mph 4.9 mph 72 % 0 in
14:56 72.3 °F 63.1 °F 30 in SSW 2.3 mph 2.3 mph 73 % 0 in
15:01 72.7 °F 63.5 °F 30 in WSW 3.5 mph 3.5 mph 73 % 0 in
15:06 73 °F 63.9 °F 30 in West 3.5 mph 3.5 mph 73 % 0 in
15:11 73.4 °F 63 °F 30 in SW 5.6 mph 5.6 mph 70 % 0 in
15:16 73.4 °F 62.2 °F 30 in WSW 4.6 mph 4.6 mph 68 % 0 in
15:21 73.2 °F 61.5 °F 30 in West 4.6 mph 4.6 mph 67 % 0 in
15:27 73.4 °F 61.9 °F 30 in West 2.6 mph 2.6 mph 67 % 0 in
15:32 73.2 °F 61.5 °F 30 in WSW 2.3 mph 2.3 mph 67 % 0 in
15:37 73 °F 61 °F 30 in West 2.4 mph 2.4 mph 66 % 0 in
15:42 73 °F 60.6 °F 30 in WSW 3.5 mph 3.5 mph 65 % 0 in
15:47 73.2 °F 60.6 °F 30 in South 2.3 mph 2.3 mph 65 % 0 in
15:52 73.2 °F 60.6 °F 30 in West 3.5 mph 3.5 mph 65 % 0 in
15:57 73.2 °F 60.3 °F 30 in WNW 2.3 mph 2.3 mph 64 % 0 in
16:02 73.4 °F 60.1 °F 30 in NNW 2.3 mph 2.3 mph 63 % 0 in
16:07 74.3 °F 60.4 °F 29.9 in ENE 2.3 mph 2.3 mph 62 % 0 in
16:12 74.5 °F 60.1 °F 29.9 in NW 4 mph 4 mph 61 % 0 in
16:17 74.3 °F 59.5 °F 29.9 in ENE 3.5 mph 3.5 mph 60 % 0 in
16:22 74.5 °F 59.7 °F 29.9 in NNE 3.1 mph 3.1 mph 60 % 0 in
16:27 75.4 °F 60.1 °F 29.9 in NW 2.4 mph 2.4 mph 59 % 0 in
16:32 76.3 °F 61 °F 29.9 in SW 3.5 mph 3.5 mph 59 % 0 in
16:37 77.2 °F 60.3 °F 29.9 in WSW 3.5 mph 3.5 mph 56 % 0 in
16:42 77.5 °F 60.1 °F 29.9 in WNW 4.6 mph 4.6 mph 55 % 0 in
16:47 77.5 °F 60.1 °F 29.9 in North 2.4 mph   55 % 0 in
16:52 77 °F 59.5 °F 29.9 in ESE 2.3 mph 2.3 mph 55 % 0 in
16:57 77.5 °F 59.5 °F 29.9 in SW 2.4 mph 2.4 mph 54 % 0 in
17:02 77 °F 58.6 °F 29.9 in South 2.3 mph 2.3 mph 53 % 0 in
17:07 77.5 °F 59.2 °F 29.9 in WSW 6.2 mph   53 % 0 in
17:12 77.9 °F 59.4 °F 29.9 in WSW 3.5 mph 3.5 mph 53 % 0 in
17:17 78.3 °F 59.7 °F 29.9 in WSW 3.5 mph 3.5 mph 53 % 0 in
17:22 78.4 °F 59.9 °F 29.9 in WSW 2.3 mph 2.4 mph 53 % 0 in
17:27 78.1 °F 59.5 °F 29.9 in NW 2.3 mph 2.3 mph 53 % 0 in
17:32 78.1 °F 59.5 °F 29.9 in West 3.5 mph 3.5 mph 53 % 0 in
17:37 78.1 °F 59.5 °F 29.9 in SW 3.5 mph 3.5 mph 53 % 0 in
17:42 78.1 °F 59 °F 29.9 in West 3.5 mph 3.5 mph 52 % 0 in
17:47 78.8 °F 59.7 °F 29.9 in West 5.4 mph 5.4 mph 52 % 0 in
17:52 79.3 °F 60.3 °F 29.9 in SW 3.5 mph 3.5 mph 52 % 0 in
17:57 79.7 °F 60.4 °F 29.9 in Calm     52 % 0 in
18:02 80.4 °F 60.6 °F 29.9 in SW 2.3 mph 2.3 mph 51 % 0 in
18:04 80.4 °F 60.6 °F 29.9 in West 3.5 mph 3.5 mph 51 % 0 in
18:09 80.4 °F 60.1 °F 29.9 in SW 2.3 mph 2.4 mph 50 % 0 in
18:14 80.4 °F 60.1 °F 29.9 in SW 4.6 mph 4.6 mph 50 % 0 in
18:19 79.7 °F 59.4 °F 29.9 in SW 3.5 mph 3.5 mph 50 % 0 in
18:24 79.7 °F 59.4 °F 29.9 in West 3.5 mph 3.5 mph 50 % 0 in
18:29 79.9 °F 59 °F 29.9 in SW 3.5 mph 3.5 mph 49 % 0 in
18:34 80.2 °F 59.4 °F 29.9 in SW 2.3 mph 2.3 mph 49 % 0 in
18:39 80.2 °F 58.8 °F 29.9 in WSW 5.8 mph 5.8 mph 48 % 0 in
18:44 80.4 °F 58.3 °F 29.9 in West 3.5 mph 3.5 mph 47 % 0 in
18:49 80.8 °F 58.1 °F 29.9 in West 3.5 mph 3.5 mph 46 % 0 in
18:54 81 °F 58.3 °F 29.9 in SSW 5.8 mph 5.8 mph 46 % 0 in
18:59 80.4 °F 57 °F 29.9 in SSE 5.8 mph 5.8 mph 45 % 0 in
19:04 80.4 °F 57 °F 29.9 in SSW 4.6 mph 4.6 mph 45 % 0 in
19:09 80.4 °F 56.5 °F 29.9 in WSW 4.6 mph 4.6 mph 44 % 0 in
19:10 68 °F 50.7 °F 30 in NE 2 mph 2 mph 54 % 0 in
19:14 79.9 °F 55.4 °F 29.9 in South 5.8 mph 5.8 mph 43 % 0 in
19:19 80.1 °F 56.1 °F 29.9 in SW 4 mph 4 mph 44 % 0 in
19:20 67.8 °F 53.1 °F 30 in NE 2 mph 4 mph 59 % 0 in
19:24 79.7 °F 55.2 °F 29.9 in South 6 mph 6 mph 43 % 0 in
19:29 79.5 °F 55 °F 29.9 in SW 3.5 mph 3.5 mph 43 % 0 in
19:30 67.5 °F 54.9 °F 30 in ENE 2 mph 4 mph 64 % 0 in
19:39 79.2 °F 54.7 °F 29.9 in SW 3.5 mph 3.5 mph 43 % 0 in
19:40 67.1 °F 55.8 °F 30 in ENE 3 mph 3 mph 67 % 0 in
19:44 78.8 °F 55 °F 29.9 in SSW 4.6 mph 4.6 mph 44 % 0 in
19:49 78.4 °F 54.7 °F 29.9 in SW 3.5 mph 3.5 mph 44 % 0 in
19:50 66.7 °F 56.1 °F 30 in ENE 3 mph 4 mph 69 % 0 in
19:54 78.1 °F 54.3 °F 29.9 in SW 4.6 mph 4.6 mph 44 % 0 in
19:59 77.7 °F 54.1 °F 29.9 in South 5.8 mph 5.8 mph 44 % 0 in
20:00 66.6 °F 56.8 °F 30 in ENE 1 mph 6 mph 71 % 0 in
20:04 77.4 °F 54.3 °F 29.9 in WSW 3.5 mph 3.5 mph 45 % 0 in
20:09 77 °F 54 °F 29.9 in SW 3.6 mph 3.6 mph 45 % 0 in
20:10 66.2 °F 56.8 °F 30 in NE 3 mph 4 mph 72 % 0 in
20:14 76.6 °F 54.3 °F 29.9 in SW 4.6 mph 4.6 mph 46 % 0 in
20:19 76.5 °F 54.7 °F 29.9 in SW 2.3 mph 2.3 mph 47 % 0 in
20:20 66.2 °F 56.8 °F 30 in ENE 3 mph 6 mph 72 % 0 in
20:24 76.3 °F 54.7 °F 29.9 in SW 3.5 mph 3.5 mph 47 % 0 in
20:29 76.1 °F 55 °F 29.9 in SW 1.6 mph   48 % 0 in
20:30 66 °F 57.6 °F 30 in NE 3 mph 4 mph 74 % 0 in
20:34 75.7 °F 54.7 °F 29.9 in SSW 4.6 mph 4.6 mph 48 % 0 in
20:39 75.4 °F 54.9 °F 29.9 in WSW 3.5 mph 3.8 mph 49 % 0 in
20:40 66 °F 57.9 °F 30 in NE 3 mph 4 mph 75 % 0 in
20:44 75.4 °F 54.9 °F 29.9 in WSW 3.5 mph 3.5 mph 49 % 0 in
20:49 75.2 °F 55.2 °F 29.9 in SW 3.5 mph 3.5 mph 50 % 0 in
20:50 66 °F 57.6 °F 30 in ENE 3 mph 3 mph 74 % 0 in
20:54 75 °F 55 °F 29.9 in WSW 2.9 mph 2.9 mph 50 % 0 in
20:59 74.7 °F 55.2 °F 29.9 in West 2.4 mph 2.4 mph 51 % 0 in
21:00 65.8 °F 57.7 °F 30 in ENE 2 mph 3 mph 75 % 0 in
21:04 74.5 °F 55.2 °F 29.9 in SSW 2.3 mph 2.3 mph 51 % 0 in
21:09 74.3 °F 55 °F 29.9 in WSW 3.5 mph 3.5 mph 51 % 0 in
21:10 65.7 °F 57.6 °F 30 in ENE 1 mph 3 mph 75 % 0 in
21:14 73.9 °F 55.2 °F 29.9 in SSW 3.6 mph 3.6 mph 52 % 0 in
21:19 73.9 °F 55.2 °F 29.9 in WSW 5.8 mph 5.8 mph 52 % 0 in
21:20 65.8 °F 57.7 °F 30 in ENE 3 mph 3 mph 75 % 0 in
21:24 73.8 °F 55.6 °F 29.9 in WSW 3.5 mph 3.5 mph 53 % 0 in
21:29 73.8 °F 55.6 °F 29.9 in West 4.6 mph 4.6 mph 53 % 0 in
21:30 66 °F 57.9 °F 30 in ENE 2 mph 3 mph 75 % 0 in
21:34 73.9 °F 55.8 °F 30 in WNW 8.1 mph 8.1 mph 53 % 0 in
21:39 73.4 °F 54.7 °F 30 in WNW 8.1 mph 8.1 mph 52 % 0 in
21:40 66 °F 58.3 °F 30 in East 2 mph 4 mph 76 % 0 in
21:44 73.2 °F 55 °F 30 in West 4.6 mph 4.6 mph 53 % 0 in
21:49 72.9 °F 54.1 °F 30 in WSW 5.8 mph 5.8 mph 52 % 0 in
21:50 66 °F 58.3 °F 30 in East 1 mph 2 mph 76 % 0 in
21:54 72.7 °F 54 °F 30 in North 5.8 mph 5.8 mph 52 % 0 in
21:59 72.3 °F 53.8 °F 30 in WSW 4.6 mph 4.6 mph 52 % 0 in
22:00 65.8 °F 58.1 °F 30 in East 1 mph 2 mph 76 % 0 in
22:04 72.1 °F 53.4 °F 30 in NE 2.3 mph 2.3 mph 52 % 0 in
22:09 72 °F 52.9 °F 30 in ENE 3.5 mph 3.5 mph 51 % 0 in
22:10 65.7 °F 57.6 °F 30 in ENE 1 mph 2 mph 75 % 0 in
22:14 71.8 °F 52.7 °F 30 in NE 2.9 mph 2.9 mph 51 % 0 in
22:19 71.6 °F 52 °F 30 in SW 2.3 mph 2.3 mph 50 % 0 in
22:20 65.5 °F 57.4 °F 30 in Calm   1 mph 75 % 0 in
22:24 71.4 °F 52.3 °F 30 in North 2.3 mph 2.3 mph 51 % 0 in
22:29 71.4 °F 52.3 °F 30 in SW 2.3 mph 2.3 mph 51 % 0 in
22:30 65.3 °F 57.2 °F 30 in Calm     75 % 0 in
22:34 70.9 °F 51.8 °F 30 in WSW 3.5 mph 3.5 mph 51 % 0 in
22:39 70.5 °F 51.4 °F 30 in Calm     51 % 0 in
22:40 64.9 °F 57.2 °F 30 in NNE 1 mph 3 mph 76 % 0 in
22:44 70.3 °F 51.3 °F 30 in NNE 2.3 mph 2.3 mph 51 % 0 in
22:49 70.2 °F 51.3 °F 30 in NNW 1.2 mph   51 % 0 in
22:50 64.8 °F 57 °F 30 in NE 1 mph 3 mph 76 % 0 in
22:54 70 °F 51.1 °F 30 in West 2.4 mph 2.4 mph 51 % 0 in
22:59 69.8 °F 50.9 °F 30 in WSW 1.6 mph   51 % 0 in
23:00 64.4 °F 56.3 °F 30 in Calm   2 mph 75 % 0 in
23:04 69.6 °F 51.3 °F 30 in SW 2.9 mph   52 % 0 in
23:09 68.9 °F 50.5 °F 30 in SW 3.5 mph 3.5 mph 52 % 0 in
23:10 64.2 °F 55.8 °F 30 in NE 1 mph 2 mph 74 % 0 in
23:15 68.7 °F 50.9 °F 30 in WSW 2.3 mph 2.4 mph 53 % 0 in
23:20 68.5 °F 50.7 °F 30 in WSW 3.5 mph 3.5 mph 53 % 0 in
23:25 68.5 °F 50.7 °F 30 in WSW 2.3 mph 2.3 mph 53 % 0 in
23:30 68.4 °F 50.5 °F 30 in WSW 1.2 mph   53 % 0 in
23:35 68.4 °F 50.5 °F 30 in WNW 1.2 mph   53 % 0 in
23:40 68.2 °F 50.9 °F 30 in WNW 1.2 mph   54 % 0 in
23:45 68.2 °F 50.9 °F 30 in Calm     54 % 0 in
23:50 68.2 °F 50.9 °F 30 in Calm     54 % 0 in
23:55 68.2 °F 50.9 °F 30 in Calm     54 % 0 in
Meteo Sesrovires
Elogis d' Weather Underground - 3.5 mb

Guio original per  Jim McMurry - jmcmurry@mwt.net Adaptat per a la plantilla per  Wim van der Kuil - Leuven-Template.eu

Trobareu la nostra informacio del temps tambe a:

Weather Underground

AWEKAS